sensor_id;sensor_type;location;lat;lon;timestamp;pressure;altitude;pressure_sealevel;temperature;humidity
19210;BME280;9738;51.654;14.238;2022-11-15T00:01:58;100514.97;;;7.85;100.00
19210;BME280;9738;51.654;14.238;2022-11-15T00:04:24;100501.22;;;7.80;100.00
19210;BME280;9738;51.654;14.238;2022-11-15T00:06:50;100503.31;;;7.76;100.00
19210;BME280;9738;51.654;14.238;2022-11-15T00:09:16;100491.25;;;7.72;100.00
19210;BME280;9738;51.654;14.238;2022-11-15T00:11:42;100490.41;;;7.72;100.00
19210;BME280;9738;51.654;14.238;2022-11-15T00:14:08;100490.41;;;7.72;100.00
19210;BME280;9738;51.654;14.238;2022-11-15T00:16:34;100492.94;;;7.73;100.00
19210;BME280;9738;51.654;14.238;2022-11-15T00:19:00;100487.31;;;7.67;100.00
19210;BME280;9738;51.654;14.238;2022-11-15T00:21:25;100484.78;;;7.65;100.00
19210;BME280;9738;51.654;14.238;2022-11-15T00:23:52;100483.16;;;7.53;100.00
19210;BME280;9738;51.654;14.238;2022-11-15T00:26:17;100476.56;;;7.47;100.00
19210;BME280;9738;51.654;14.238;2022-11-15T00:28:44;100483.38;;;7.40;100.00
19210;BME280;9738;51.654;14.238;2022-11-15T00:31:14;100489.06;;;7.36;100.00
19210;BME280;9738;51.654;14.238;2022-11-15T00:33:42;100481.75;;;7.28;100.00
19210;BME280;9738;51.654;14.238;2022-11-15T00:36:09;100484.91;;;7.22;100.00
19210;BME280;9738;51.654;14.238;2022-11-15T00:38:39;100477.09;;;7.20;100.00
19210;BME280;9738;51.654;14.238;2022-11-15T00:41:06;100474.16;;;7.23;100.00
19210;BME280;9738;51.654;14.238;2022-11-15T00:43:33;100476.44;;;7.28;100.00
19210;BME280;9738;51.654;14.238;2022-11-15T00:46:00;100472.81;;;7.29;100.00
19210;BME280;9738;51.654;14.238;2022-11-15T00:48:26;100460.22;;;7.31;100.00
19210;BME280;9738;51.654;14.238;2022-11-15T00:50:52;100469.91;;;7.32;100.00
19210;BME280;9738;51.654;14.238;2022-11-15T00:53:18;100465.00;;;7.37;100.00
19210;BME280;9738;51.654;14.238;2022-11-15T00:55:44;100458.03;;;7.36;100.00
19210;BME280;9738;51.654;14.238;2022-11-15T00:58:09;100456.81;;;7.40;100.00
19210;BME280;9738;51.654;14.238;2022-11-15T01:00:36;100462.56;;;7.45;100.00
19210;BME280;9738;51.654;14.238;2022-11-15T01:03:01;100461.59;;;7.46;100.00
19210;BME280;9738;51.654;14.238;2022-11-15T01:05:28;100467.94;;;7.55;100.00
19210;BME280;9738;51.654;14.238;2022-11-15T01:07:55;100463.44;;;7.55;100.00
19210;BME280;9738;51.654;14.238;2022-11-15T01:10:22;100444.66;;;7.47;100.00
19210;BME280;9738;51.654;14.238;2022-11-15T01:12:48;100452.03;;;7.44;100.00
19210;BME280;9738;51.654;14.238;2022-11-15T01:15:15;100451.09;;;7.45;100.00
19210;BME280;9738;51.654;14.238;2022-11-15T01:17:40;100449.28;;;7.45;100.00
19210;BME280;9738;51.654;14.238;2022-11-15T01:20:07;100451.66;;;7.48;100.00
19210;BME280;9738;51.654;14.238;2022-11-15T01:22:33;100447.31;;;7.47;100.00
19210;BME280;9738;51.654;14.238;2022-11-15T01:24:59;100449.97;;;7.47;100.00
19210;BME280;9738;51.654;14.238;2022-11-15T01:27:25;100441.63;;;7.52;100.00
19210;BME280;9738;51.654;14.238;2022-11-15T01:29:51;100433.50;;;7.53;100.00
19210;BME280;9738;51.654;14.238;2022-11-15T01:32:17;100440.66;;;7.53;100.00
19210;BME280;9738;51.654;14.238;2022-11-15T01:34:43;100430.72;;;7.55;100.00
19210;BME280;9738;51.654;14.238;2022-11-15T01:37:09;100426.53;;;7.52;100.00
19210;BME280;9738;51.654;14.238;2022-11-15T01:39:35;100417.81;;;7.50;100.00
19210;BME280;9738;51.654;14.238;2022-11-15T01:42:01;100424.84;;;7.51;100.00
19210;BME280;9738;51.654;14.238;2022-11-15T01:44:36;100414.00;;;7.43;100.00
19210;BME280;9738;51.654;14.238;2022-11-15T01:47:09;100406.75;;;7.45;100.00
19210;BME280;9738;51.654;14.238;2022-11-15T01:49:39;100404.81;;;7.47;100.00
19210;BME280;9738;51.654;14.238;2022-11-15T01:52:09;100407.50;;;7.57;100.00
19210;BME280;9738;51.654;14.238;2022-11-15T01:54:39;100398.56;;;7.58;100.00
19210;BME280;9738;51.654;14.238;2022-11-15T01:57:09;100404.72;;;7.58;100.00
19210;BME280;9738;51.654;14.238;2022-11-15T01:59:42;100404.13;;;7.55;100.00
19210;BME280;9738;51.654;14.238;2022-11-15T02:02:09;100400.94;;;7.61;100.00
19210;BME280;9738;51.654;14.238;2022-11-15T02:04:39;100395.63;;;7.61;100.00
19210;BME280;9738;51.654;14.238;2022-11-15T02:07:06;100403.59;;;7.61;100.00
19210;BME280;9738;51.654;14.238;2022-11-15T02:09:36;100395.19;;;7.56;100.00
19210;BME280;9738;51.654;14.238;2022-11-15T02:12:02;100393.38;;;7.56;100.00
19210;BME280;9738;51.654;14.238;2022-11-15T02:14:28;100390.16;;;7.53;100.00
19210;BME280;9738;51.654;14.238;2022-11-15T02:20:04;100394.22;;;7.57;100.00
19210;BME280;9738;51.654;14.238;2022-11-15T02:28:10;100377.25;;;7.48;100.00
19210;BME280;9738;51.654;14.238;2022-11-15T02:30:41;100381.72;;;7.48;100.00
19210;BME280;9738;51.654;14.238;2022-11-15T02:33:33;100378.63;;;7.43;100.00
19210;BME280;9738;51.654;14.238;2022-11-15T02:36:05;100380.44;;;7.42;100.00
19210;BME280;9738;51.654;14.238;2022-11-15T02:38:59;100381.69;;;7.38;100.00
19210;BME280;9738;51.654;14.238;2022-11-15T02:41:44;100378.06;;;7.39;100.00
19210;BME280;9738;51.654;14.238;2022-11-15T02:44:33;100368.81;;;7.34;100.00
19210;BME280;9738;51.654;14.238;2022-11-15T02:47:07;100368.94;;;7.32;100.00
19210;BME280;9738;51.654;14.238;2022-11-15T02:49:49;100370.88;;;7.30;100.00
19210;BME280;9738;51.654;14.238;2022-11-15T02:52:19;100368.50;;;7.27;100.00
19210;BME280;9738;51.654;14.238;2022-11-15T02:54:54;100365.09;;;7.25;100.00
19210;BME280;9738;51.654;14.238;2022-11-15T02:57:42;100364.53;;;7.21;100.00
19210;BME280;9738;51.654;14.238;2022-11-15T03:00:14;100366.88;;;7.15;100.00
19210;BME280;9738;51.654;14.238;2022-11-15T03:05:56;100355.81;;;7.10;100.00
19210;BME280;9738;51.654;14.238;2022-11-15T03:08:32;100349.38;;;7.12;100.00
19210;BME280;9738;51.654;14.238;2022-11-15T03:11:08;100350.25;;;7.13;100.00
19210;BME280;9738;51.654;14.238;2022-11-15T03:13:55;100337.38;;;7.18;100.00
19210;BME280;9738;51.654;14.238;2022-11-15T03:16:35;100343.22;;;7.12;100.00
19210;BME280;9738;51.654;14.238;2022-11-15T03:19:13;100341.94;;;7.06;100.00
19210;BME280;9738;51.654;14.238;2022-11-15T03:21:43;100336.75;;;7.04;100.00
19210;BME280;9738;51.654;14.238;2022-11-15T03:24:11;100343.66;;;7.07;100.00
19210;BME280;9738;51.654;14.238;2022-11-15T03:26:39;100333.13;;;7.05;100.00
19210;BME280;9738;51.654;14.238;2022-11-15T03:29:14;100329.53;;;7.07;100.00
19210;BME280;9738;51.654;14.238;2022-11-15T03:31:45;100334.84;;;7.07;100.00
19210;BME280;9738;51.654;14.238;2022-11-15T03:34:27;100327.94;;;7.04;100.00
19210;BME280;9738;51.654;14.238;2022-11-15T03:36:55;100332.28;;;7.05;100.00
19210;BME280;9738;51.654;14.238;2022-11-15T03:39:23;100325.16;;;7.05;100.00
19210;BME280;9738;51.654;14.238;2022-11-15T03:42:04;100331.19;;;7.08;100.00
19210;BME280;9738;51.654;14.238;2022-11-15T03:44:51;100326.72;;;7.08;100.00
19210;BME280;9738;51.654;14.238;2022-11-15T03:47:23;100328.22;;;7.01;100.00
19210;BME280;9738;51.654;14.238;2022-11-15T03:50:07;100330.56;;;6.94;100.00
19210;BME280;9738;51.654;14.238;2022-11-15T03:52:34;100324.94;;;6.88;100.00
19210;BME280;9738;51.654;14.238;2022-11-15T03:55:03;100321.81;;;6.83;100.00
19210;BME280;9738;51.654;14.238;2022-11-15T03:57:29;100331.59;;;6.82;100.00
19210;BME280;9738;51.654;14.238;2022-11-15T03:59:54;100328.50;;;6.77;100.00
19210;BME280;9738;51.654;14.238;2022-11-15T04:02:21;100329.78;;;6.83;100.00
19210;BME280;9738;51.654;14.238;2022-11-15T04:04:47;100323.50;;;6.84;100.00
19210;BME280;9738;51.654;14.238;2022-11-15T04:07:12;100331.94;;;6.89;100.00
19210;BME280;9738;51.654;14.238;2022-11-15T04:09:39;100319.50;;;6.89;100.00
19210;BME280;9738;51.654;14.238;2022-11-15T04:12:24;100330.81;;;6.91;100.00
19210;BME280;9738;51.654;14.238;2022-11-15T04:15:05;100320.19;;;6.91;100.00
19210;BME280;9738;51.654;14.238;2022-11-15T04:17:44;100321.63;;;6.95;100.00
19210;BME280;9738;51.654;14.238;2022-11-15T04:20:14;100329.31;;;6.98;100.00
19210;BME280;9738;51.654;14.238;2022-11-15T04:23:00;100316.03;;;6.98;100.00
19210;BME280;9738;51.654;14.238;2022-11-15T04:25:48;100325.97;;;6.96;100.00
19210;BME280;9738;51.654;14.238;2022-11-15T04:28:15;100318.25;;;6.93;100.00
19210;BME280;9738;51.654;14.238;2022-11-15T04:30:40;100321.03;;;6.92;100.00
19210;BME280;9738;51.654;14.238;2022-11-15T04:33:07;100317.41;;;6.93;100.00
19210;BME280;9738;51.654;14.238;2022-11-15T04:35:33;100316.97;;;6.88;100.00
19210;BME280;9738;51.654;14.238;2022-11-15T04:37:59;100316.84;;;6.89;100.00
19210;BME280;9738;51.654;14.238;2022-11-15T04:40:25;100319.63;;;6.88;100.00
19210;BME280;9738;51.654;14.238;2022-11-15T04:42:51;100319.19;;;6.83;100.00
19210;BME280;9738;51.654;14.238;2022-11-15T04:45:17;100320.16;;;6.82;100.00
19210;BME280;9738;51.654;14.238;2022-11-15T04:47:44;100324.03;;;6.77;100.00
19210;BME280;9738;51.654;14.238;2022-11-15T04:50:11;100319.94;;;6.73;100.00
19210;BME280;9738;51.654;14.238;2022-11-15T04:52:43;100312.81;;;6.74;100.00
19210;BME280;9738;51.654;14.238;2022-11-15T04:55:15;100319.84;;;6.75;100.00
19210;BME280;9738;51.654;14.238;2022-11-15T04:57:41;100320.66;;;6.75;100.00
19210;BME280;9738;51.654;14.238;2022-11-15T05:00:10;100316.19;;;6.76;100.00
19210;BME280;9738;51.654;14.238;2022-11-15T05:02:38;100301.25;;;6.75;100.00
19210;BME280;9738;51.654;14.238;2022-11-15T05:05:24;100315.22;;;6.77;100.00
19210;BME280;9738;51.654;14.238;2022-11-15T05:07:51;100314.63;;;6.73;100.00
19210;BME280;9738;51.654;14.238;2022-11-15T05:10:16;100314.63;;;6.73;100.00
19210;BME280;9738;51.654;14.238;2022-11-15T05:12:42;100315.56;;;6.63;100.00
19210;BME280;9738;51.654;14.238;2022-11-15T05:15:09;100312.44;;;6.58;100.00
19210;BME280;9738;51.654;14.238;2022-11-15T05:17:35;100306.22;;;6.47;100.00
19210;BME280;9738;51.654;14.238;2022-11-15T05:20:00;100309.63;;;6.38;100.00
19210;BME280;9738;51.654;14.238;2022-11-15T05:22:27;100307.81;;;6.39;100.00
19210;BME280;9738;51.654;14.238;2022-11-15T05:24:53;100312.63;;;6.45;100.00
19210;BME280;9738;51.654;14.238;2022-11-15T05:27:19;100305.97;;;6.50;100.00
19210;BME280;9738;51.654;14.238;2022-11-15T05:29:45;100305.44;;;6.57;100.00
19210;BME280;9738;51.654;14.238;2022-11-15T05:32:11;100301.44;;;6.62;100.00
19210;BME280;9738;51.654;14.238;2022-11-15T05:34:37;100302.00;;;6.66;100.00
19210;BME280;9738;51.654;14.238;2022-11-15T05:37:03;100308.91;;;6.68;100.00
19210;BME280;9738;51.654;14.238;2022-11-15T05:39:29;100302.59;;;6.69;100.00
19210;BME280;9738;51.654;14.238;2022-11-15T05:42:01;100307.78;;;6.71;100.00
19210;BME280;9738;51.654;14.238;2022-11-15T05:44:30;100300.41;;;6.74;100.00
19210;BME280;9738;51.654;14.238;2022-11-15T05:46:56;100300.00;;;6.79;100.00
19210;BME280;9738;51.654;14.238;2022-11-15T05:49:28;100304.75;;;6.75;100.00
19210;BME280;9738;51.654;14.238;2022-11-15T05:51:56;100302.19;;;6.74;100.00
19210;BME280;9738;51.654;14.238;2022-11-15T05:54:24;100300.41;;;6.74;100.00
19210;BME280;9738;51.654;14.238;2022-11-15T05:56:50;100291.84;;;6.71;100.00
19210;BME280;9738;51.654;14.238;2022-11-15T05:59:17;100293.66;;;6.70;100.00
19210;BME280;9738;51.654;14.238;2022-11-15T06:01:43;100298.38;;;6.67;100.00
19210;BME280;9738;51.654;14.238;2022-11-15T06:04:09;100299.50;;;6.64;100.00
19210;BME280;9738;51.654;14.238;2022-11-15T06:06:35;100292.09;;;6.68;100.00
19210;BME280;9738;51.654;14.238;2022-11-15T06:09:01;100299.81;;;6.71;100.00
19210;BME280;9738;51.654;14.238;2022-11-15T06:11:27;100295.09;;;6.74;100.00
19210;BME280;9738;51.654;14.238;2022-11-15T06:13:53;100296.50;;;6.78;100.00
19210;BME280;9738;51.654;14.238;2022-11-15T06:16:20;100295.66;;;6.78;100.00
19210;BME280;9738;51.654;14.238;2022-11-15T06:18:46;100293.28;;;6.75;100.00
19210;BME280;9738;51.654;14.238;2022-11-15T06:21:12;100304.59;;;6.77;100.00
19210;BME280;9738;51.654;14.238;2022-11-15T06:23:38;100305.72;;;6.74;100.00
19210;BME280;9738;51.654;14.238;2022-11-15T06:26:04;100306.81;;;6.72;100.00
19210;BME280;9738;51.654;14.238;2022-11-15T06:28:31;100303.06;;;6.74;100.00
19210;BME280;9738;51.654;14.238;2022-11-15T06:31:05;100306.81;;;6.72;100.00
19210;BME280;9738;51.654;14.238;2022-11-15T06:33:32;100310.16;;;6.74;100.00
19210;BME280;9738;51.654;14.238;2022-11-15T06:36:06;100315.59;;;6.72;100.00
19210;BME280;9738;51.654;14.238;2022-11-15T06:38:33;100312.28;;;6.80;100.00
19210;BME280;9738;51.654;14.238;2022-11-15T06:41:03;100315.41;;;6.85;100.00
19210;BME280;9738;51.654;14.238;2022-11-15T06:43:29;100318.00;;;6.96;100.00
19210;BME280;9738;51.654;14.238;2022-11-15T06:45:55;100319.44;;;7.00;100.00
19210;BME280;9738;51.654;14.238;2022-11-15T06:48:21;100321.94;;;7.02;100.00
19210;BME280;9738;51.654;14.238;2022-11-15T06:50:53;100321.41;;;7.08;100.00
19210;BME280;9738;51.654;14.238;2022-11-15T06:53:21;100329.94;;;7.12;100.00
19210;BME280;9738;51.654;14.238;2022-11-15T06:55:47;100327.88;;;7.15;100.00
19210;BME280;9738;51.654;14.238;2022-11-15T06:58:13;100326.50;;;7.21;100.00
19210;BME280;9738;51.654;14.238;2022-11-15T07:00:39;100333.81;;;7.28;100.00
19210;BME280;9738;51.654;14.238;2022-11-15T07:03:05;100335.50;;;7.29;100.00
19210;BME280;9738;51.654;14.238;2022-11-15T07:05:31;100337.75;;;7.34;100.00
19210;BME280;9738;51.654;14.238;2022-11-15T07:07:58;100339.19;;;7.38;100.00
19210;BME280;9738;51.654;14.238;2022-11-15T07:10:25;100339.88;;;7.40;100.00
19210;BME280;9738;51.654;14.238;2022-11-15T07:12:52;100334.19;;;7.45;100.00
19210;BME280;9738;51.654;14.238;2022-11-15T07:15:20;100333.75;;;7.49;100.00
19210;BME280;9738;51.654;14.238;2022-11-15T07:17:46;100329.59;;;7.56;100.00
19210;BME280;9738;51.654;14.238;2022-11-15T07:20:13;100324.47;;;7.65;100.00
19210;BME280;9738;51.654;14.238;2022-11-15T07:22:40;100336.22;;;7.72;100.00
19210;BME280;9738;51.654;14.238;2022-11-15T07:25:07;100328.41;;;7.80;100.00
19210;BME280;9738;51.654;14.238;2022-11-15T07:27:33;100328.41;;;7.80;100.00
19210;BME280;9738;51.654;14.238;2022-11-15T07:30:00;100328.16;;;7.83;100.00
19210;BME280;9738;51.654;14.238;2022-11-15T07:32:26;100330.97;;;7.91;100.00
19210;BME280;9738;51.654;14.238;2022-11-15T07:34:52;100326.78;;;7.98;100.00
19210;BME280;9738;51.654;14.238;2022-11-15T07:37:18;100320.59;;;8.07;100.00
19210;BME280;9738;51.654;14.238;2022-11-15T07:39:44;100324.56;;;8.23;100.00
19210;BME280;9738;51.654;14.238;2022-11-15T07:42:10;100324.84;;;8.29;100.00
19210;BME280;9738;51.654;14.238;2022-11-15T07:44:55;100318.44;;;8.42;100.00
19210;BME280;9738;51.654;14.238;2022-11-15T07:47:21;100312.09;;;8.52;100.00
19210;BME280;9738;51.654;14.238;2022-11-15T07:49:46;100316.03;;;8.68;100.00
19210;BME280;9738;51.654;14.238;2022-11-15T07:52:13;100320.06;;;8.81;100.00
19210;BME280;9738;51.654;14.238;2022-11-15T07:54:39;100313.03;;;8.90;100.00
19210;BME280;9738;51.654;14.238;2022-11-15T07:57:05;100311.06;;;9.02;100.00
19210;BME280;9738;51.654;14.238;2022-11-15T07:59:33;100320.72;;;9.12;100.00
19210;BME280;9738;51.654;14.238;2022-11-15T08:02:00;100311.13;;;9.29;100.00
19210;BME280;9738;51.654;14.238;2022-11-15T08:04:26;100314.56;;;9.39;100.00
19210;BME280;9738;51.654;14.238;2022-11-15T08:06:52;100306.09;;;9.54;100.00
19210;BME280;9738;51.654;14.238;2022-11-15T08:09:18;100305.38;;;9.61;100.00
19210;BME280;9738;51.654;14.238;2022-11-15T08:11:44;100306.97;;;9.72;100.00
19210;BME280;9738;51.654;14.238;2022-11-15T08:14:10;100306.19;;;9.89;100.00
19210;BME280;9738;51.654;14.238;2022-11-15T08:16:36;100302.31;;;10.01;100.00
19210;BME280;9738;51.654;14.238;2022-11-15T08:19:01;100306.59;;;10.12;100.00
19210;BME280;9738;51.654;14.238;2022-11-15T08:21:28;100297.38;;;10.42;100.00
19210;BME280;9738;51.654;14.238;2022-11-15T08:23:53;100298.03;;;10.62;100.00
19210;BME280;9738;51.654;14.238;2022-11-15T08:26:19;100300.09;;;10.68;100.00
19210;BME280;9738;51.654;14.238;2022-11-15T08:28:45;100302.28;;;10.91;100.00
19210;BME280;9738;51.654;14.238;2022-11-15T08:31:15;100295.25;;;11.16;100.00
19210;BME280;9738;51.654;14.238;2022-11-15T08:33:42;100298.03;;;11.40;100.00
19210;BME280;9738;51.654;14.238;2022-11-15T08:36:12;100303.34;;;11.66;100.00
19210;BME280;9738;51.654;14.238;2022-11-15T08:38:38;100302.72;;;11.80;100.00
19210;BME280;9738;51.654;14.238;2022-11-15T08:41:04;100302.44;;;11.92;100.00
19210;BME280;9738;51.654;14.238;2022-11-15T08:43:32;100294.78;;;11.97;100.00
19210;BME280;9738;51.654;14.238;2022-11-15T08:45:58;100290.56;;;11.94;100.00
19210;BME280;9738;51.654;14.238;2022-11-15T08:48:24;100288.72;;;11.95;100.00
19210;BME280;9738;51.654;14.238;2022-11-15T08:50:56;100289.34;;;11.80;100.00
19210;BME280;9738;51.654;14.238;2022-11-15T08:53:22;100286.63;;;11.72;100.00
19210;BME280;9738;51.654;14.238;2022-11-15T08:55:48;100286.81;;;11.71;100.00
19210;BME280;9738;51.654;14.238;2022-11-15T08:58:15;100285.06;;;11.53;100.00
19210;BME280;9738;51.654;14.238;2022-11-15T09:00:40;100285.19;;;11.44;100.00
19210;BME280;9738;51.654;14.238;2022-11-15T09:03:06;100296.38;;;11.39;100.00
19210;BME280;9738;51.654;14.238;2022-11-15T09:05:35;100288.81;;;11.34;100.00
19210;BME280;9738;51.654;14.238;2022-11-15T09:08:01;100283.91;;;11.22;100.00
19210;BME280;9738;51.654;14.238;2022-11-15T09:10:27;100287.59;;;11.21;100.00
19210;BME280;9738;51.654;14.238;2022-11-15T09:12:53;100288.09;;;11.24;100.00
19210;BME280;9738;51.654;14.238;2022-11-15T09:15:19;100277.28;;;11.34;100.00
19210;BME280;9738;51.654;14.238;2022-11-15T09:17:45;100290.16;;;11.38;100.00
19210;BME280;9738;51.654;14.238;2022-11-15T09:20:11;100296.59;;;11.54;100.00
19210;BME280;9738;51.654;14.238;2022-11-15T09:22:37;100295.66;;;11.71;100.00
19210;BME280;9738;51.654;14.238;2022-11-15T09:25:04;100298.28;;;11.97;100.00
19210;BME280;9738;51.654;14.238;2022-11-15T09:27:31;100292.81;;;12.23;100.00
19210;BME280;9738;51.654;14.238;2022-11-15T09:29:57;100286.78;;;12.45;100.00
19210;BME280;9738;51.654;14.238;2022-11-15T09:32:23;100289.13;;;12.65;100.00
19210;BME280;9738;51.654;14.238;2022-11-15T09:34:50;100289.78;;;12.83;100.00
19210;BME280;9738;51.654;14.238;2022-11-15T09:37:16;100281.72;;;12.99;100.00
19210;BME280;9738;51.654;14.238;2022-11-15T09:39:41;100286.88;;;13.09;100.00
19210;BME280;9738;51.654;14.238;2022-11-15T09:45:24;100287.38;;;13.13;100.00
19210;BME280;9738;51.654;14.238;2022-11-15T09:48:19;100284.53;;;13.31;100.00
19210;BME280;9738;51.654;14.238;2022-11-15T09:50:50;100281.94;;;13.45;100.00
19210;BME280;9738;51.654;14.238;2022-11-15T09:53:31;100282.28;;;13.50;100.00
19210;BME280;9738;51.654;14.238;2022-11-15T09:56:03;100277.22;;;13.56;100.00
19210;BME280;9738;51.654;14.238;2022-11-15T10:01:19;100276.94;;;14.04;100.00
19210;BME280;9738;51.654;14.238;2022-11-15T10:03:49;100272.41;;;14.28;100.00
19210;BME280;9738;51.654;14.238;2022-11-15T10:06:25;100278.03;;;14.41;100.00
19210;BME280;9738;51.654;14.238;2022-11-15T10:09:00;100278.09;;;14.56;100.00
19210;BME280;9738;51.654;14.238;2022-11-15T10:11:35;100274.34;;;14.80;100.00
19210;BME280;9738;51.654;14.238;2022-11-15T10:14:10;100269.94;;;15.02;100.00
19210;BME280;9738;51.654;14.238;2022-11-15T10:22:03;100265.47;;;15.38;73.34
19210;BME280;9738;51.654;14.238;2022-11-15T10:24:37;100257.69;;;15.44;72.69
19210;BME280;9738;51.654;14.238;2022-11-15T10:27:15;100254.63;;;15.32;72.37
19210;BME280;9738;51.654;14.238;2022-11-15T10:29:46;100243.03;;;15.31;72.76
19210;BME280;9738;51.654;14.238;2022-11-15T10:32:13;100245.72;;;15.46;73.63
19210;BME280;9738;51.654;14.238;2022-11-15T10:34:39;100248.09;;;15.71;71.92
19210;BME280;9738;51.654;14.238;2022-11-15T10:37:06;100245.00;;;15.88;72.23
19210;BME280;9738;51.654;14.238;2022-11-15T10:39:32;100237.13;;;16.08;70.00
19210;BME280;9738;51.654;14.238;2022-11-15T10:42:15;100229.56;;;16.18;69.72
19210;BME280;9738;51.654;14.238;2022-11-15T10:44:44;100220.50;;;16.26;68.80
19210;BME280;9738;51.654;14.238;2022-11-15T10:50:01;100223.41;;;16.25;67.79
19210;BME280;9738;51.654;14.238;2022-11-15T10:52:29;100218.38;;;16.21;67.19
19210;BME280;9738;51.654;14.238;2022-11-15T10:55:03;100206.41;;;16.24;67.66
19210;BME280;9738;51.654;14.238;2022-11-15T10:57:33;100213.00;;;16.43;66.49
19210;BME280;9738;51.654;14.238;2022-11-15T11:00:29;100199.22;;;16.59;66.25
19210;BME280;9738;51.654;14.238;2022-11-15T11:05:36;100195.06;;;16.57;67.86
19210;BME280;9738;51.654;14.238;2022-11-15T11:10:55;100189.41;;;16.52;65.77
19210;BME280;9738;51.654;14.238;2022-11-15T11:15:56;100192.16;;;16.80;66.16
19210;BME280;9738;51.654;14.238;2022-11-15T11:18:30;100184.50;;;16.90;65.03
19210;BME280;9738;51.654;14.238;2022-11-15T11:21:04;100178.94;;;16.98;64.65
19210;BME280;9738;51.654;14.238;2022-11-15T11:29:33;100172.66;;;16.84;63.88
19210;BME280;9738;51.654;14.238;2022-11-15T11:35:01;100156.25;;;16.86;66.37
19210;BME280;9738;51.654;14.238;2022-11-15T11:37:50;100159.09;;;17.06;63.97
19210;BME280;9738;51.654;14.238;2022-11-15T11:46:12;100148.41;;;16.91;64.13
19210;BME280;9738;51.654;14.238;2022-11-15T11:48:47;100138.66;;;16.90;66.70
19210;BME280;9738;51.654;14.238;2022-11-15T11:51:28;100133.44;;;16.82;67.01
19210;BME280;9738;51.654;14.238;2022-11-15T11:54:19;100135.34;;;16.88;65.43
19210;BME280;9738;51.654;14.238;2022-11-15T11:56:46;100136.44;;;17.00;65.97
19210;BME280;9738;51.654;14.238;2022-11-15T11:59:38;100130.03;;;17.08;64.84
19210;BME280;9738;51.654;14.238;2022-11-15T12:02:28;100124.66;;;17.14;65.60
19210;BME280;9738;51.654;14.238;2022-11-15T12:05:13;100127.66;;;17.39;63.64
19210;BME280;9738;51.654;14.238;2022-11-15T12:07:44;100122.03;;;17.41;63.77
19210;BME280;9738;51.654;14.238;2022-11-15T12:10:20;100116.56;;;17.21;63.16
19210;BME280;9738;51.654;14.238;2022-11-15T12:13:00;100117.56;;;17.07;64.34
19210;BME280;9738;51.654;14.238;2022-11-15T12:15:32;100115.09;;;17.05;64.72
19210;BME280;9738;51.654;14.238;2022-11-15T12:18:01;100118.22;;;17.15;65.55
19210;BME280;9738;51.654;14.238;2022-11-15T12:20:30;100117.97;;;17.10;63.19
19210;BME280;9738;51.654;14.238;2022-11-15T12:23:04;100113.53;;;16.89;64.23
19210;BME280;9738;51.654;14.238;2022-11-15T12:26:05;100110.34;;;16.72;64.92
19210;BME280;9738;51.654;14.238;2022-11-15T12:28:40;100095.53;;;16.62;64.68
19210;BME280;9738;51.654;14.238;2022-11-15T12:31:15;100094.91;;;16.66;64.70
19210;BME280;9738;51.654;14.238;2022-11-15T12:33:46;100090.53;;;16.59;65.65
19210;BME280;9738;51.654;14.238;2022-11-15T12:36:32;100089.69;;;16.58;64.76
19210;BME280;9738;51.654;14.238;2022-11-15T12:39:07;100084.31;;;16.58;65.17
19210;BME280;9738;51.654;14.238;2022-11-15T12:41:37;100085.75;;;16.54;65.43
19210;BME280;9738;51.654;14.238;2022-11-15T12:44:04;100074.72;;;16.49;66.27
19210;BME280;9738;51.654;14.238;2022-11-15T12:59:54;100067.66;;;16.13;68.65
19210;BME280;9738;51.654;14.238;2022-11-15T13:02:23;100066.13;;;16.04;66.73
19210;BME280;9738;51.654;14.238;2022-11-15T13:04:52;100062.38;;;15.99;66.63
19210;BME280;9738;51.654;14.238;2022-11-15T13:17:39;100044.50;;;15.48;69.12
19210;BME280;9738;51.654;14.238;2022-11-15T13:22:40;100039.09;;;15.27;70.18
19210;BME280;9738;51.654;14.238;2022-11-15T13:30:37;100033.47;;;15.22;69.53
19210;BME280;9738;51.654;14.238;2022-11-15T13:33:15;100029.75;;;15.23;70.32
19210;BME280;9738;51.654;14.238;2022-11-15T13:35:46;100028.72;;;15.24;71.93
19210;BME280;9738;51.654;14.238;2022-11-15T13:40:50;100020.19;;;15.20;75.73
19210;BME280;9738;51.654;14.238;2022-11-15T13:48:33;100016.19;;;14.95;76.70
19210;BME280;9738;51.654;14.238;2022-11-15T13:51:02;100024.88;;;14.90;75.37
19210;BME280;9738;51.654;14.238;2022-11-15T13:53:31;100023.38;;;14.87;77.11
19210;BME280;9738;51.654;14.238;2022-11-15T13:55:58;100013.63;;;14.86;76.63
19210;BME280;9738;51.654;14.238;2022-11-15T13:58:25;100014.19;;;14.82;75.15
19210;BME280;9738;51.654;14.238;2022-11-15T14:00:59;100012.25;;;14.76;76.88
19210;BME280;9738;51.654;14.238;2022-11-15T14:03:32;100009.69;;;14.68;77.62
19210;BME280;9738;51.654;14.238;2022-11-15T14:06:10;100013.22;;;14.68;78.47
19210;BME280;9738;51.654;14.238;2022-11-15T14:08:57;100006.72;;;14.63;79.43
19210;BME280;9738;51.654;14.238;2022-11-15T14:11:23;100003.78;;;14.57;80.03
19210;BME280;9738;51.654;14.238;2022-11-15T14:16:39;99998.50;;;14.49;80.72
19210;BME280;9738;51.654;14.238;2022-11-15T14:19:10;100011.75;;;14.36;80.75
19210;BME280;9738;51.654;14.238;2022-11-15T14:21:36;100010.47;;;14.32;81.48
19210;BME280;9738;51.654;14.238;2022-11-15T14:24:20;100019.72;;;14.29;81.48
19210;BME280;9738;51.654;14.238;2022-11-15T14:26:47;100021.66;;;14.21;81.38
19210;BME280;9738;51.654;14.238;2022-11-15T14:29:26;100011.03;;;14.13;82.11
19210;BME280;9738;51.654;14.238;2022-11-15T14:31:54;100012.41;;;14.09;82.97
19210;BME280;9738;51.654;14.238;2022-11-15T14:34:32;100008.06;;;14.07;83.22